sensor_id;sensor_type;location;lat;lon;timestamp;P1;durP1;ratioP1;P2;durP2;ratioP2
50291;SDS011;36190;54.980;73.388;2024-02-23T00:01:43;0.30;;;0.30;;
50291;SDS011;36190;54.980;73.388;2024-02-23T00:04:10;0.30;;;0.30;;
50291;SDS011;36190;54.980;73.388;2024-02-23T00:06:40;0.47;;;0.47;;
50291;SDS011;36190;54.980;73.388;2024-02-23T00:09:07;0.50;;;0.50;;
50291;SDS011;36190;54.980;73.388;2024-02-23T00:11:35;0.43;;;0.43;;
50291;SDS011;36190;54.980;73.388;2024-02-23T00:14:09;0.50;;;0.50;;
50291;SDS011;36190;54.980;73.388;2024-02-23T00:16:37;0.40;;;0.40;;
50291;SDS011;36190;54.980;73.388;2024-02-23T00:19:07;0.50;;;0.50;;
50291;SDS011;36190;54.980;73.388;2024-02-23T00:21:35;0.40;;;0.40;;
50291;SDS011;36190;54.980;73.388;2024-02-23T00:24:05;0.50;;;0.50;;
50291;SDS011;36190;54.980;73.388;2024-02-23T00:26:33;0.40;;;0.40;;
50291;SDS011;36190;54.980;73.388;2024-02-23T00:29:02;0.40;;;0.40;;
50291;SDS011;36190;54.980;73.388;2024-02-23T00:31:29;0.30;;;0.30;;
50291;SDS011;36190;54.980;73.388;2024-02-23T00:33:57;0.40;;;0.40;;
50291;SDS011;36190;54.980;73.388;2024-02-23T00:36:25;0.40;;;0.40;;
50291;SDS011;36190;54.980;73.388;2024-02-23T00:38:52;0.30;;;0.30;;
50291;SDS011;36190;54.980;73.388;2024-02-23T00:41:21;0.30;;;0.30;;
50291;SDS011;36190;54.980;73.388;2024-02-23T00:43:49;0.30;;;0.30;;
50291;SDS011;36190;54.980;73.388;2024-02-23T00:46:17;0.50;;;0.50;;
50291;SDS011;36190;54.980;73.388;2024-02-23T00:48:45;0.30;;;0.30;;
50291;SDS011;36190;54.980;73.388;2024-02-23T00:51:12;0.30;;;0.30;;
50291;SDS011;36190;54.980;73.388;2024-02-23T00:53:40;0.20;;;0.20;;
50291;SDS011;36190;54.980;73.388;2024-02-23T00:56:08;0.30;;;0.30;;
50291;SDS011;36190;54.980;73.388;2024-02-23T00:58:37;0.40;;;0.40;;
50291;SDS011;36190;54.980;73.388;2024-02-23T01:01:05;0.43;;;0.43;;
50291;SDS011;36190;54.980;73.388;2024-02-23T01:03:33;0.40;;;0.40;;
50291;SDS011;36190;54.980;73.388;2024-02-23T01:06:01;0.40;;;0.40;;
50291;SDS011;36190;54.980;73.388;2024-02-23T01:08:29;0.30;;;0.30;;
50291;SDS011;36190;54.980;73.388;2024-02-23T01:10:56;0.37;;;0.37;;
50291;SDS011;36190;54.980;73.388;2024-02-23T01:13:24;0.37;;;0.37;;
50291;SDS011;36190;54.980;73.388;2024-02-23T01:15:53;0.30;;;0.30;;
50291;SDS011;36190;54.980;73.388;2024-02-23T01:18:21;0.50;;;0.50;;
50291;SDS011;36190;54.980;73.388;2024-02-23T01:20:49;0.30;;;0.30;;
50291;SDS011;36190;54.980;73.388;2024-02-23T01:23:16;0.40;;;0.40;;
50291;SDS011;36190;54.980;73.388;2024-02-23T01:25:44;0.50;;;0.50;;
50291;SDS011;36190;54.980;73.388;2024-02-23T01:28:12;0.40;;;0.40;;
50291;SDS011;36190;54.980;73.388;2024-02-23T01:30:39;0.37;;;0.37;;
50291;SDS011;36190;54.980;73.388;2024-02-23T01:33:08;0.50;;;0.50;;
50291;SDS011;36190;54.980;73.388;2024-02-23T01:35:36;0.40;;;0.40;;
50291;SDS011;36190;54.980;73.388;2024-02-23T01:38:04;0.40;;;0.40;;
50291;SDS011;36190;54.980;73.388;2024-02-23T01:40:31;0.40;;;0.40;;
50291;SDS011;36190;54.980;73.388;2024-02-23T01:43:03;0.40;;;0.40;;
50291;SDS011;36190;54.980;73.388;2024-02-23T01:45:31;0.50;;;0.50;;
50291;SDS011;36190;54.980;73.388;2024-02-23T01:47:59;0.40;;;0.40;;
50291;SDS011;36190;54.980;73.388;2024-02-23T01:50:30;0.57;;;0.57;;
50291;SDS011;36190;54.980;73.388;2024-02-23T01:53:00;0.40;;;0.40;;
50291;SDS011;36190;54.980;73.388;2024-02-23T01:55:29;0.47;;;0.47;;
50291;SDS011;36190;54.980;73.388;2024-02-23T01:57:57;0.40;;;0.40;;
50291;SDS011;36190;54.980;73.388;2024-02-23T02:00:26;0.50;;;0.50;;
50291;SDS011;36190;54.980;73.388;2024-02-23T02:02:54;0.30;;;0.30;;
50291;SDS011;36190;54.980;73.388;2024-02-23T02:05:21;0.30;;;0.30;;
50291;SDS011;36190;54.980;73.388;2024-02-23T02:07:51;0.40;;;0.40;;
50291;SDS011;36190;54.980;73.388;2024-02-23T02:10:24;0.40;;;0.40;;
50291;SDS011;36190;54.980;73.388;2024-02-23T02:12:52;0.40;;;0.40;;
50291;SDS011;36190;54.980;73.388;2024-02-23T02:15:20;0.50;;;0.50;;
50291;SDS011;36190;54.980;73.388;2024-02-23T02:17:48;0.50;;;0.50;;
50291;SDS011;36190;54.980;73.388;2024-02-23T02:20:15;0.50;;;0.50;;
50291;SDS011;36190;54.980;73.388;2024-02-23T02:22:51;0.50;;;0.50;;
50291;SDS011;36190;54.980;73.388;2024-02-23T02:25:19;0.50;;;0.50;;
50291;SDS011;36190;54.980;73.388;2024-02-23T02:27:47;0.50;;;0.50;;
50291;SDS011;36190;54.980;73.388;2024-02-23T02:30:15;0.47;;;0.47;;
50291;SDS011;36190;54.980;73.388;2024-02-23T02:32:42;0.57;;;0.57;;
50291;SDS011;36190;54.980;73.388;2024-02-23T02:35:10;0.50;;;0.50;;
50291;SDS011;36190;54.980;73.388;2024-02-23T02:37:38;0.60;;;0.60;;
50291;SDS011;36190;54.980;73.388;2024-02-23T02:40:08;0.50;;;0.50;;
50291;SDS011;36190;54.980;73.388;2024-02-23T02:42:36;0.50;;;0.50;;
50291;SDS011;36190;54.980;73.388;2024-02-23T02:45:04;0.50;;;0.50;;
50291;SDS011;36190;54.980;73.388;2024-02-23T02:47:32;0.40;;;0.40;;
50291;SDS011;36190;54.980;73.388;2024-02-23T02:50:01;0.40;;;0.40;;
50291;SDS011;36190;54.980;73.388;2024-02-23T02:52:32;0.60;;;0.60;;
50291;SDS011;36190;54.980;73.388;2024-02-23T02:54:59;0.60;;;0.60;;
50291;SDS011;36190;54.980;73.388;2024-02-23T02:57:28;0.37;;;0.37;;
50291;SDS011;36190;54.980;73.388;2024-02-23T02:59:56;0.43;;;0.43;;
50291;SDS011;36190;54.980;73.388;2024-02-23T03:02:24;0.30;;;0.30;;
50291;SDS011;36190;54.980;73.388;2024-02-23T03:04:51;0.33;;;0.33;;
50291;SDS011;36190;54.980;73.388;2024-02-23T03:07:20;0.40;;;0.40;;
50291;SDS011;36190;54.980;73.388;2024-02-23T03:09:48;0.30;;;0.30;;
50291;SDS011;36190;54.980;73.388;2024-02-23T03:12:16;0.50;;;0.50;;
50291;SDS011;36190;54.980;73.388;2024-02-23T03:14:45;0.50;;;0.50;;
50291;SDS011;36190;54.980;73.388;2024-02-23T03:17:13;0.37;;;0.37;;
50291;SDS011;36190;54.980;73.388;2024-02-23T03:19:41;0.40;;;0.40;;
50291;SDS011;36190;54.980;73.388;2024-02-23T03:22:09;0.50;;;0.50;;
50291;SDS011;36190;54.980;73.388;2024-02-23T03:24:36;0.40;;;0.40;;
50291;SDS011;36190;54.980;73.388;2024-02-23T03:27:04;0.30;;;0.30;;
50291;SDS011;36190;54.980;73.388;2024-02-23T03:29:32;0.40;;;0.40;;
50291;SDS011;36190;54.980;73.388;2024-02-23T03:32:01;0.30;;;0.30;;
50291;SDS011;36190;54.980;73.388;2024-02-23T03:34:29;0.50;;;0.50;;
50291;SDS011;36190;54.980;73.388;2024-02-23T03:36:57;0.50;;;0.50;;
50291;SDS011;36190;54.980;73.388;2024-02-23T03:39:27;0.40;;;0.40;;
50291;SDS011;36190;54.980;73.388;2024-02-23T03:41:55;0.40;;;0.40;;
50291;SDS011;36190;54.980;73.388;2024-02-23T03:44:23;0.37;;;0.37;;
50291;SDS011;36190;54.980;73.388;2024-02-23T03:46:50;0.40;;;0.40;;
50291;SDS011;36190;54.980;73.388;2024-02-23T03:49:19;0.40;;;0.40;;
50291;SDS011;36190;54.980;73.388;2024-02-23T03:51:47;0.40;;;0.40;;
50291;SDS011;36190;54.980;73.388;2024-02-23T03:54:15;0.50;;;0.50;;
50291;SDS011;36190;54.980;73.388;2024-02-23T03:58:55;0.50;;;0.50;;
50291;SDS011;36190;54.980;73.388;2024-02-23T04:01:22;0.40;;;0.40;;
50291;SDS011;36190;54.980;73.388;2024-02-23T04:03:50;0.40;;;0.40;;
50291;SDS011;36190;54.980;73.388;2024-02-23T04:06:17;0.30;;;0.30;;
50291;SDS011;36190;54.980;73.388;2024-02-23T04:08:45;0.30;;;0.30;;
50291;SDS011;36190;54.980;73.388;2024-02-23T04:11:13;0.40;;;0.40;;
50291;SDS011;36190;54.980;73.388;2024-02-23T04:13:41;0.43;;;0.43;;
50291;SDS011;36190;54.980;73.388;2024-02-23T04:16:10;0.40;;;0.40;;
50291;SDS011;36190;54.980;73.388;2024-02-23T04:18:37;0.60;;;0.60;;
50291;SDS011;36190;54.980;73.388;2024-02-23T04:21:05;0.47;;;0.47;;
50291;SDS011;36190;54.980;73.388;2024-02-23T04:23:33;0.30;;;0.30;;
50291;SDS011;36190;54.980;73.388;2024-02-23T04:26:00;0.43;;;0.43;;
50291;SDS011;36190;54.980;73.388;2024-02-23T04:28:28;0.30;;;0.30;;
50291;SDS011;36190;54.980;73.388;2024-02-23T04:30:59;0.40;;;0.40;;
50291;SDS011;36190;54.980;73.388;2024-02-23T04:33:28;0.40;;;0.40;;
50291;SDS011;36190;54.980;73.388;2024-02-23T04:35:56;0.40;;;0.40;;
50291;SDS011;36190;54.980;73.388;2024-02-23T04:38:24;0.30;;;0.30;;
50291;SDS011;36190;54.980;73.388;2024-02-23T04:40:51;0.33;;;0.33;;
50291;SDS011;36190;54.980;73.388;2024-02-23T04:43:19;0.40;;;0.40;;
50291;SDS011;36190;54.980;73.388;2024-02-23T04:45:47;0.40;;;0.40;;
50291;SDS011;36190;54.980;73.388;2024-02-23T04:48:15;0.30;;;0.30;;
50291;SDS011;36190;54.980;73.388;2024-02-23T04:50:44;0.40;;;0.40;;
50291;SDS011;36190;54.980;73.388;2024-02-23T04:53:13;0.40;;;0.40;;
50291;SDS011;36190;54.980;73.388;2024-02-23T04:55:40;0.30;;;0.30;;
50291;SDS011;36190;54.980;73.388;2024-02-23T04:58:08;0.37;;;0.37;;
50291;SDS011;36190;54.980;73.388;2024-02-23T05:00:37;0.40;;;0.40;;
50291;SDS011;36190;54.980;73.388;2024-02-23T05:03:05;0.30;;;0.30;;
50291;SDS011;36190;54.980;73.388;2024-02-23T05:05:33;0.30;;;0.30;;
50291;SDS011;36190;54.980;73.388;2024-02-23T05:08:03;0.30;;;0.30;;
50291;SDS011;36190;54.980;73.388;2024-02-23T05:10:31;0.40;;;0.40;;
50291;SDS011;36190;54.980;73.388;2024-02-23T05:12:59;0.30;;;0.30;;
50291;SDS011;36190;54.980;73.388;2024-02-23T05:15:27;0.40;;;0.40;;
50291;SDS011;36190;54.980;73.388;2024-02-23T05:17:54;0.50;;;0.50;;
50291;SDS011;36190;54.980;73.388;2024-02-23T05:20:22;0.30;;;0.30;;
50291;SDS011;36190;54.980;73.388;2024-02-23T05:22:49;0.30;;;0.30;;
50291;SDS011;36190;54.980;73.388;2024-02-23T05:25:19;0.30;;;0.30;;
50291;SDS011;36190;54.980;73.388;2024-02-23T05:27:46;0.30;;;0.30;;
50291;SDS011;36190;54.980;73.388;2024-02-23T05:30:14;0.20;;;0.20;;
50291;SDS011;36190;54.980;73.388;2024-02-23T05:32:42;0.37;;;0.37;;
50291;SDS011;36190;54.980;73.388;2024-02-23T05:35:09;0.40;;;0.40;;
50291;SDS011;36190;54.980;73.388;2024-02-23T05:37:37;0.30;;;0.30;;
50291;SDS011;36190;54.980;73.388;2024-02-23T05:40:05;0.20;;;0.20;;
50291;SDS011;36190;54.980;73.388;2024-02-23T05:42:37;0.33;;;0.33;;
50291;SDS011;36190;54.980;73.388;2024-02-23T05:45:06;0.30;;;0.30;;
50291;SDS011;36190;54.980;73.388;2024-02-23T05:47:35;0.37;;;0.37;;
50291;SDS011;36190;54.980;73.388;2024-02-23T05:50:03;0.30;;;0.30;;
50291;SDS011;36190;54.980;73.388;2024-02-23T05:52:32;0.40;;;0.40;;
50291;SDS011;36190;54.980;73.388;2024-02-23T05:55:00;0.30;;;0.30;;
50291;SDS011;36190;54.980;73.388;2024-02-23T05:57:27;0.30;;;0.30;;
50291;SDS011;36190;54.980;73.388;2024-02-23T05:59:56;0.23;;;0.23;;
50291;SDS011;36190;54.980;73.388;2024-02-23T06:02:24;0.20;;;0.20;;
50291;SDS011;36190;54.980;73.388;2024-02-23T06:04:52;0.30;;;0.30;;
50291;SDS011;36190;54.980;73.388;2024-02-23T06:07:20;0.20;;;0.20;;
50291;SDS011;36190;54.980;73.388;2024-02-23T06:09:54;0.30;;;0.30;;
50291;SDS011;36190;54.980;73.388;2024-02-23T06:12:22;0.23;;;0.23;;
50291;SDS011;36190;54.980;73.388;2024-02-23T06:14:52;0.20;;;0.20;;
50291;SDS011;36190;54.980;73.388;2024-02-23T06:17:22;0.20;;;0.20;;
50291;SDS011;36190;54.980;73.388;2024-02-23T06:19:50;0.20;;;0.20;;
50291;SDS011;36190;54.980;73.388;2024-02-23T06:22:18;0.20;;;0.20;;
50291;SDS011;36190;54.980;73.388;2024-02-23T06:24:47;0.20;;;0.20;;
50291;SDS011;36190;54.980;73.388;2024-02-23T06:27:15;0.20;;;0.20;;
50291;SDS011;36190;54.980;73.388;2024-02-23T06:29:47;0.20;;;0.20;;
50291;SDS011;36190;54.980;73.388;2024-02-23T06:32:15;0.30;;;0.30;;
50291;SDS011;36190;54.980;73.388;2024-02-23T06:34:44;0.20;;;0.20;;
50291;SDS011;36190;54.980;73.388;2024-02-23T06:37:12;0.30;;;0.30;;
50291;SDS011;36190;54.980;73.388;2024-02-23T06:39:41;0.20;;;0.20;;
50291;SDS011;36190;54.980;73.388;2024-02-23T06:42:09;0.30;;;0.30;;
50291;SDS011;36190;54.980;73.388;2024-02-23T06:44:37;0.20;;;0.20;;
50291;SDS011;36190;54.980;73.388;2024-02-23T06:47:05;0.20;;;0.20;;
50291;SDS011;36190;54.980;73.388;2024-02-23T06:49:33;0.20;;;0.20;;
50291;SDS011;36190;54.980;73.388;2024-02-23T06:52:02;0.20;;;0.20;;
50291;SDS011;36190;54.980;73.388;2024-02-23T06:54:30;0.20;;;0.20;;
50291;SDS011;36190;54.980;73.388;2024-02-23T06:56:58;0.23;;;0.23;;
50291;SDS011;36190;54.980;73.388;2024-02-23T06:59:25;0.20;;;0.20;;
50291;SDS011;36190;54.980;73.388;2024-02-23T07:01:53;0.20;;;0.20;;
50291;SDS011;36190;54.980;73.388;2024-02-23T07:04:21;0.23;;;0.23;;
50291;SDS011;36190;54.980;73.388;2024-02-23T07:06:49;0.30;;;0.30;;
50291;SDS011;36190;54.980;73.388;2024-02-23T07:09:18;0.20;;;0.20;;
50291;SDS011;36190;54.980;73.388;2024-02-23T07:11:46;0.20;;;0.20;;
50291;SDS011;36190;54.980;73.388;2024-02-23T07:14:14;0.20;;;0.20;;
50291;SDS011;36190;54.980;73.388;2024-02-23T07:16:42;0.23;;;0.23;;
50291;SDS011;36190;54.980;73.388;2024-02-23T07:19:10;0.20;;;0.20;;
50291;SDS011;36190;54.980;73.388;2024-02-23T07:21:38;0.20;;;0.20;;
50291;SDS011;36190;54.980;73.388;2024-02-23T07:24:06;0.20;;;0.20;;
50291;SDS011;36190;54.980;73.388;2024-02-23T07:26:35;0.23;;;0.23;;
50291;SDS011;36190;54.980;73.388;2024-02-23T07:29:03;0.20;;;0.20;;
50291;SDS011;36190;54.980;73.388;2024-02-23T07:31:31;0.20;;;0.20;;
50291;SDS011;36190;54.980;73.388;2024-02-23T07:33:59;0.20;;;0.20;;
50291;SDS011;36190;54.980;73.388;2024-02-23T07:36:27;0.30;;;0.30;;
50291;SDS011;36190;54.980;73.388;2024-02-23T07:38:55;0.20;;;0.20;;
50291;SDS011;36190;54.980;73.388;2024-02-23T07:41:22;0.20;;;0.20;;
50291;SDS011;36190;54.980;73.388;2024-02-23T07:43:52;0.30;;;0.30;;
50291;SDS011;36190;54.980;73.388;2024-02-23T07:46:19;0.27;;;0.27;;
50291;SDS011;36190;54.980;73.388;2024-02-23T07:48:48;0.20;;;0.20;;
50291;SDS011;36190;54.980;73.388;2024-02-23T07:51:16;0.30;;;0.30;;
50291;SDS011;36190;54.980;73.388;2024-02-23T07:53:44;0.30;;;0.30;;
50291;SDS011;36190;54.980;73.388;2024-02-23T07:56:12;0.30;;;0.30;;
50291;SDS011;36190;54.980;73.388;2024-02-23T07:58:39;0.20;;;0.20;;
50291;SDS011;36190;54.980;73.388;2024-02-23T08:01:09;0.27;;;0.27;;
50291;SDS011;36190;54.980;73.388;2024-02-23T08:03:36;0.20;;;0.20;;
50291;SDS011;36190;54.980;73.388;2024-02-23T08:06:04;0.20;;;0.20;;
50291;SDS011;36190;54.980;73.388;2024-02-23T08:08:32;0.20;;;0.20;;
50291;SDS011;36190;54.980;73.388;2024-02-23T08:11:01;0.20;;;0.20;;
50291;SDS011;36190;54.980;73.388;2024-02-23T08:13:29;0.30;;;0.30;;
50291;SDS011;36190;54.980;73.388;2024-02-23T08:15:57;0.20;;;0.20;;
50291;SDS011;36190;54.980;73.388;2024-02-23T08:18:26;0.20;;;0.20;;
50291;SDS011;36190;54.980;73.388;2024-02-23T08:20:54;0.20;;;0.20;;
50291;SDS011;36190;54.980;73.388;2024-02-23T08:23:21;0.30;;;0.30;;
50291;SDS011;36190;54.980;73.388;2024-02-23T08:25:49;0.20;;;0.20;;
50291;SDS011;36190;54.980;73.388;2024-02-23T08:28:19;0.20;;;0.20;;
50291;SDS011;36190;54.980;73.388;2024-02-23T08:30:46;0.30;;;0.30;;
50291;SDS011;36190;54.980;73.388;2024-02-23T08:33:14;0.20;;;0.20;;
50291;SDS011;36190;54.980;73.388;2024-02-23T08:35:43;0.20;;;0.20;;
50291;SDS011;36190;54.980;73.388;2024-02-23T08:38:11;0.30;;;0.30;;
50291;SDS011;36190;54.980;73.388;2024-02-23T08:40:57;0.30;;;0.30;;
50291;SDS011;36190;54.980;73.388;2024-02-23T08:43:24;0.23;;;0.23;;
50291;SDS011;36190;54.980;73.388;2024-02-23T08:45:52;0.30;;;0.30;;
50291;SDS011;36190;54.980;73.388;2024-02-23T08:48:20;0.20;;;0.20;;
50291;SDS011;36190;54.980;73.388;2024-02-23T08:50:49;0.20;;;0.20;;
50291;SDS011;36190;54.980;73.388;2024-02-23T08:53:16;0.20;;;0.20;;
50291;SDS011;36190;54.980;73.388;2024-02-23T08:55:44;0.20;;;0.20;;
50291;SDS011;36190;54.980;73.388;2024-02-23T08:58:12;0.20;;;0.20;;
50291;SDS011;36190;54.980;73.388;2024-02-23T09:00:57;0.20;;;0.20;;
50291;SDS011;36190;54.980;73.388;2024-02-23T09:03:24;0.20;;;0.20;;
50291;SDS011;36190;54.980;73.388;2024-02-23T09:05:54;0.20;;;0.20;;
50291;SDS011;36190;54.980;73.388;2024-02-23T09:08:21;0.20;;;0.20;;
50291;SDS011;36190;54.980;73.388;2024-02-23T09:10:49;0.20;;;0.20;;
50291;SDS011;36190;54.980;73.388;2024-02-23T09:13:17;0.20;;;0.20;;
50291;SDS011;36190;54.980;73.388;2024-02-23T09:15:44;0.20;;;0.20;;
50291;SDS011;36190;54.980;73.388;2024-02-23T09:18:12;0.20;;;0.20;;
50291;SDS011;36190;54.980;73.388;2024-02-23T09:20:40;0.20;;;0.20;;
50291;SDS011;36190;54.980;73.388;2024-02-23T09:23:26;0.27;;;0.27;;
50291;SDS011;36190;54.980;73.388;2024-02-23T09:25:54;0.30;;;0.30;;
50291;SDS011;36190;54.980;73.388;2024-02-23T09:28:22;0.20;;;0.20;;
50291;SDS011;36190;54.980;73.388;2024-02-23T09:30:50;0.30;;;0.30;;
50291;SDS011;36190;54.980;73.388;2024-02-23T09:33:17;0.30;;;0.30;;
50291;SDS011;36190;54.980;73.388;2024-02-23T09:35:45;0.33;;;0.33;;
50291;SDS011;36190;54.980;73.388;2024-02-23T09:38:13;0.20;;;0.20;;
50291;SDS011;36190;54.980;73.388;2024-02-23T09:40:42;0.43;;;0.43;;
50291;SDS011;36190;54.980;73.388;2024-02-23T09:43:10;0.20;;;0.20;;
50291;SDS011;36190;54.980;73.388;2024-02-23T09:45:39;0.30;;;0.30;;
50291;SDS011;36190;54.980;73.388;2024-02-23T09:48:07;0.20;;;0.20;;
50291;SDS011;36190;54.980;73.388;2024-02-23T09:50:37;0.30;;;0.30;;
50291;SDS011;36190;54.980;73.388;2024-02-23T09:53:06;0.30;;;0.30;;
50291;SDS011;36190;54.980;73.388;2024-02-23T09:55:36;0.30;;;0.30;;
50291;SDS011;36190;54.980;73.388;2024-02-23T09:58:06;0.30;;;0.30;;
50291;SDS011;36190;54.980;73.388;2024-02-23T10:00:35;0.30;;;0.30;;
50291;SDS011;36190;54.980;73.388;2024-02-23T10:03:05;0.30;;;0.30;;
50291;SDS011;36190;54.980;73.388;2024-02-23T10:05:33;0.30;;;0.30;;
50291;SDS011;36190;54.980;73.388;2024-02-23T10:08:01;0.30;;;0.30;;
50291;SDS011;36190;54.980;73.388;2024-02-23T10:10:29;0.20;;;0.20;;
50291;SDS011;36190;54.980;73.388;2024-02-23T10:12:59;0.30;;;0.30;;
50291;SDS011;36190;54.980;73.388;2024-02-23T10:15:31;0.20;;;0.20;;
50291;SDS011;36190;54.980;73.388;2024-02-23T10:17:58;0.30;;;0.30;;
50291;SDS011;36190;54.980;73.388;2024-02-23T10:20:26;0.30;;;0.30;;
50291;SDS011;36190;54.980;73.388;2024-02-23T10:22:54;0.20;;;0.20;;
50291;SDS011;36190;54.980;73.388;2024-02-23T10:25:23;0.30;;;0.30;;
50291;SDS011;36190;54.980;73.388;2024-02-23T10:27:51;0.20;;;0.20;;
50291;SDS011;36190;54.980;73.388;2024-02-23T10:30:18;0.30;;;0.30;;
50291;SDS011;36190;54.980;73.388;2024-02-23T10:32:47;0.20;;;0.20;;
50291;SDS011;36190;54.980;73.388;2024-02-23T10:35:20;0.30;;;0.30;;
50291;SDS011;36190;54.980;73.388;2024-02-23T10:37:49;0.20;;;0.20;;
50291;SDS011;36190;54.980;73.388;2024-02-23T10:40:19;0.30;;;0.30;;
50291;SDS011;36190;54.980;73.388;2024-02-23T10:42:48;0.20;;;0.20;;
50291;SDS011;36190;54.980;73.388;2024-02-23T10:45:17;0.20;;;0.20;;
50291;SDS011;36190;54.980;73.388;2024-02-23T10:47:47;0.25;;;0.25;;
50291;SDS011;36190;54.980;73.388;2024-02-23T10:50:17;0.22;;;0.22;;
50291;SDS011;36190;54.980;73.388;2024-02-23T10:52:45;0.30;;;0.30;;
50291;SDS011;36190;54.980;73.388;2024-02-23T10:55:14;0.20;;;0.20;;
50291;SDS011;36190;54.980;73.388;2024-02-23T10:57:42;0.32;;;0.32;;
50291;SDS011;36190;54.980;73.388;2024-02-23T11:00:10;0.20;;;0.20;;
50291;SDS011;36190;54.980;73.388;2024-02-23T11:02:39;0.20;;;0.20;;
50291;SDS011;36190;54.980;73.388;2024-02-23T11:05:12;0.20;;;0.20;;
50291;SDS011;36190;54.980;73.388;2024-02-23T11:07:41;0.30;;;0.30;;
50291;SDS011;36190;54.980;73.388;2024-02-23T11:10:12;0.20;;;0.20;;
50291;SDS011;36190;54.980;73.388;2024-02-23T11:12:40;0.20;;;0.20;;
50291;SDS011;36190;54.980;73.388;2024-02-23T11:15:08;0.20;;;0.20;;
50291;SDS011;36190;54.980;73.388;2024-02-23T11:17:36;0.20;;;0.20;;
50291;SDS011;36190;54.980;73.388;2024-02-23T11:20:04;0.30;;;0.30;;
50291;SDS011;36190;54.980;73.388;2024-02-23T11:22:35;0.30;;;0.30;;
50291;SDS011;36190;54.980;73.388;2024-02-23T11:25:03;0.30;;;0.30;;
50291;SDS011;36190;54.980;73.388;2024-02-23T11:27:33;0.20;;;0.20;;
50291;SDS011;36190;54.980;73.388;2024-02-23T11:30:02;0.20;;;0.20;;
50291;SDS011;36190;54.980;73.388;2024-02-23T11:32:36;0.20;;;0.20;;
50291;SDS011;36190;54.980;73.388;2024-02-23T11:35:07;0.30;;;0.30;;
50291;SDS011;36190;54.980;73.388;2024-02-23T11:40:24;0.20;;;0.20;;
50291;SDS011;36190;54.980;73.388;2024-02-23T11:42:54;0.20;;;0.20;;
50291;SDS011;36190;54.980;73.388;2024-02-23T11:45:22;0.30;;;0.30;;
50291;SDS011;36190;54.980;73.388;2024-02-23T11:47:51;0.20;;;0.20;;
50291;SDS011;36190;54.980;73.388;2024-02-23T11:50:19;0.27;;;0.27;;
50291;SDS011;36190;54.980;73.388;2024-02-23T11:52:47;0.20;;;0.20;;
50291;SDS011;36190;54.980;73.388;2024-02-23T11:55:19;0.40;;;0.40;;
50291;SDS011;36190;54.980;73.388;2024-02-23T11:57:48;0.20;;;0.20;;
50291;SDS011;36190;54.980;73.388;2024-02-23T12:00:16;0.20;;;0.20;;
50291;SDS011;36190;54.980;73.388;2024-02-23T12:02:44;0.20;;;0.20;;
50291;SDS011;36190;54.980;73.388;2024-02-23T12:05:15;0.20;;;0.20;;
50291;SDS011;36190;54.980;73.388;2024-02-23T12:07:43;0.30;;;0.30;;
50291;SDS011;36190;54.980;73.388;2024-02-23T12:10:11;0.30;;;0.30;;
50291;SDS011;36190;54.980;73.388;2024-02-23T12:12:40;0.30;;;0.30;;
50291;SDS011;36190;54.980;73.388;2024-02-23T12:15:08;0.30;;;0.30;;
50291;SDS011;36190;54.980;73.388;2024-02-23T12:17:46;0.30;;;0.30;;
50291;SDS011;36190;54.980;73.388;2024-02-23T12:20:14;0.20;;;0.20;;
50291;SDS011;36190;54.980;73.388;2024-02-23T12:22:42;0.30;;;0.30;;
50291;SDS011;36190;54.980;73.388;2024-02-23T12:25:11;0.30;;;0.30;;
50291;SDS011;36190;54.980;73.388;2024-02-23T12:27:41;0.30;;;0.20;;
50291;SDS011;36190;54.980;73.388;2024-02-23T12:30:13;0.20;;;0.20;;
50291;SDS011;36190;54.980;73.388;2024-02-23T12:32:42;0.20;;;0.20;;
50291;SDS011;36190;54.980;73.388;2024-02-23T12:35:10;0.30;;;0.30;;
50291;SDS011;36190;54.980;73.388;2024-02-23T12:37:38;0.30;;;0.30;;
50291;SDS011;36190;54.980;73.388;2024-02-23T12:40:07;0.20;;;0.20;;
50291;SDS011;36190;54.980;73.388;2024-02-23T12:42:35;0.20;;;0.20;;
50291;SDS011;36190;54.980;73.388;2024-02-23T12:45:05;0.20;;;0.20;;
50291;SDS011;36190;54.980;73.388;2024-02-23T12:47:35;0.30;;;0.30;;
50291;SDS011;36190;54.980;73.388;2024-02-23T12:50:04;0.20;;;0.20;;
50291;SDS011;36190;54.980;73.388;2024-02-23T12:52:33;0.23;;;0.23;;
50291;SDS011;36190;54.980;73.388;2024-02-23T12:55:01;0.30;;;0.30;;
50291;SDS011;36190;54.980;73.388;2024-02-23T12:57:29;0.20;;;0.20;;
50291;SDS011;36190;54.980;73.388;2024-02-23T12:59:57;0.30;;;0.30;;
50291;SDS011;36190;54.980;73.388;2024-02-23T13:02:26;0.20;;;0.20;;
50291;SDS011;36190;54.980;73.388;2024-02-23T13:04:54;0.20;;;0.20;;
50291;SDS011;36190;54.980;73.388;2024-02-23T13:07:21;0.27;;;0.27;;
50291;SDS011;36190;54.980;73.388;2024-02-23T13:09:49;0.20;;;0.20;;
50291;SDS011;36190;54.980;73.388;2024-02-23T13:12:17;0.30;;;0.30;;
50291;SDS011;36190;54.980;73.388;2024-02-23T13:14:45;0.30;;;0.30;;
50291;SDS011;36190;54.980;73.388;2024-02-23T13:17:12;0.30;;;0.30;;
50291;SDS011;36190;54.980;73.388;2024-02-23T13:19:42;0.20;;;0.20;;
50291;SDS011;36190;54.980;73.388;2024-02-23T13:22:10;0.30;;;0.30;;
50291;SDS011;36190;54.980;73.388;2024-02-23T13:24:37;0.23;;;0.23;;
50291;SDS011;36190;54.980;73.388;2024-02-23T13:27:06;0.20;;;0.20;;
50291;SDS011;36190;54.980;73.388;2024-02-23T13:29:34;0.20;;;0.20;;
50291;SDS011;36190;54.980;73.388;2024-02-23T13:32:01;0.20;;;0.20;;
50291;SDS011;36190;54.980;73.388;2024-02-23T13:34:29;0.20;;;0.20;;
50291;SDS011;36190;54.980;73.388;2024-02-23T13:36:58;0.20;;;0.20;;
50291;SDS011;36190;54.980;73.388;2024-02-23T13:39:26;0.33;;;0.33;;
50291;SDS011;36190;54.980;73.388;2024-02-23T13:41:54;0.20;;;0.20;;
50291;SDS011;36190;54.980;73.388;2024-02-23T13:44:21;0.30;;;0.30;;
50291;SDS011;36190;54.980;73.388;2024-02-23T13:46:49;0.37;;;0.37;;
50291;SDS011;36190;54.980;73.388;2024-02-23T13:49:17;0.40;;;0.40;;
50291;SDS011;36190;54.980;73.388;2024-02-23T13:51:44;0.40;;;0.40;;
50291;SDS011;36190;54.980;73.388;2024-02-23T13:54:14;0.50;;;0.50;;
50291;SDS011;36190;54.980;73.388;2024-02-23T13:56:41;0.40;;;0.40;;
50291;SDS011;36190;54.980;73.388;2024-02-23T13:59:10;0.30;;;0.30;;
50291;SDS011;36190;54.980;73.388;2024-02-23T14:01:37;0.30;;;0.30;;
50291;SDS011;36190;54.980;73.388;2024-02-23T14:04:06;0.37;;;0.37;;
50291;SDS011;36190;54.980;73.388;2024-02-23T14:06:34;0.30;;;0.30;;
50291;SDS011;36190;54.980;73.388;2024-02-23T14:09:02;0.30;;;0.30;;
50291;SDS011;36190;54.980;73.388;2024-02-23T14:11:31;0.30;;;0.30;;
50291;SDS011;36190;54.980;73.388;2024-02-23T14:13:59;0.20;;;0.20;;
50291;SDS011;36190;54.980;73.388;2024-02-23T14:16:28;0.30;;;0.30;;
50291;SDS011;36190;54.980;73.388;2024-02-23T14:18:56;0.30;;;0.30;;
50291;SDS011;36190;54.980;73.388;2024-02-23T14:21:23;0.20;;;0.20;;
50291;SDS011;36190;54.980;73.388;2024-02-23T14:23:52;0.20;;;0.20;;
50291;SDS011;36190;54.980;73.388;2024-02-23T14:26:19;0.20;;;0.20;;
50291;SDS011;36190;54.980;73.388;2024-02-23T14:28:49;0.20;;;0.20;;
50291;SDS011;36190;54.980;73.388;2024-02-23T14:31:16;0.20;;;0.20;;
50291;SDS011;36190;54.980;73.388;2024-02-23T14:33:44;0.23;;;0.23;;
50291;SDS011;36190;54.980;73.388;2024-02-23T14:36:16;0.20;;;0.20;;
50291;SDS011;36190;54.980;73.388;2024-02-23T14:38:44;0.20;;;0.20;;
50291;SDS011;36190;54.980;73.388;2024-02-23T14:41:11;0.20;;;0.20;;
50291;SDS011;36190;54.980;73.388;2024-02-23T14:43:39;0.20;;;0.20;;
50291;SDS011;36190;54.980;73.388;2024-02-23T14:46:08;0.20;;;0.20;;